Terminal Aerodrome Forecast
Issued by NWS

Home | Current Version | Previous Version | Text Only | Print | Product List | Glossary On
Versions: 1 2 3 4 5 6 7 8 9 10 11 12 13 14 15
000
FTUS43 KLSX 221328 AAA
TAFUIN
TAF AMD
KUIN 221328Z 2213/2312 22008KT P6SM -SHRA VCTS SCT030CB OVC080
      TEMPO 2213/2216 4SM -TSRA BKN030CB
     FM221600 23008KT P6SM SCT040 BKN250
     FM230100 VRB04KT P6SM SCT250=

USA.gov is the U.S. government's official web portal to all federal, state and local government web resources and services.